Time;durP1;ratioP1;P1;durP2;ratioP2;P2;SDS_P1;SDS_P2;PMS_P1;PMS_P2;Temp;Humidity;BMP_temperature;BMP_pressure;BME280_temperature;BME280_humidity;BME280_pressure;Samples;Min_cycle;Max_cycle;Signal;HPM_P1;HPM_P2
2021/12/02 00:01:17;;;;;;;11.25;7.87;;;;;;;7.29;81.26;99335.25;1675340;84;21041;-61
2021/12/02 00:03:46;;;;;;;9.98;6.95;;;;;;;7.34;79.24;99335.50;1679289;83;21081;-59
2021/12/02 00:06:15;;;;;;;11.30;7.55;;;;;;;7.26;77.48;99339.01;1698937;83;21423;-60
2021/12/02 00:08:43;;;;;;;10.88;7.58;;;;;;;7.09;78.45;99341.53;1679174;83;20986;-59
2021/12/02 00:11:11;;;;;;;10.50;7.00;;;;;;;6.70;81.10;99345.73;1680032;83;21380;-59
2021/12/02 00:16:24;;;;;;;9.00;6.33;;;;;;;6.96;77.63;99356.92;1700566;83;21181;-60
2021/12/02 00:21:24;;;;;;;9.23;5.12;;;;;;;6.95;74.83;99362.59;1699734;83;20942;-58
2021/12/02 00:23:58;;;;;;;8.55;5.25;;;;;;;6.76;76.46;99367.04;1679164;83;21020;-59
2021/12/02 00:26:25;;;;;;;7.05;4.80;;;;;;;6.64;76.78;99373.66;1711277;82;21005;-59
2021/12/02 00:28:56;;;;;;;7.22;4.83;;;;;;;6.67;75.99;99374.11;1714472;82;22193;-59
2021/12/02 00:31:28;;;;;;;7.35;4.47;;;;;;;6.69;73.10;99381.19;1720330;82;20922;-60
2021/12/02 00:34:03;;;;;;;7.28;4.37;;;;;;;6.45;73.08;99387.45;1710475;83;20948;-60
2021/12/02 00:36:35;;;;;;;6.97;4.40;;;;;;;6.65;71.62;99388.21;1711523;82;21039;-60
2021/12/02 00:39:09;;;;;;;6.17;3.72;;;;;;;6.26;72.43;99400.41;1680313;83;21008;-61
2021/12/02 00:41:36;;;;;;;6.00;3.52;;;;;;;6.21;74.07;99400.14;1678820;84;21333;-60
2021/12/02 00:44:04;;;;;;;5.53;3.42;;;;;;;6.35;72.24;99406.30;1679052;83;21055;-60
2021/12/02 00:46:33;;;;;;;5.10;3.05;;;;;;;6.41;71.07;99417.26;1679259;84;21015;-60
2021/12/02 00:49:06;;;;;;;5.87;3.30;;;;;;;6.25;71.70;99424.69;1710195;83;20879;-64
2021/12/02 00:51:35;;;;;;;5.10;3.17;;;;;;;6.55;70.75;99417.77;1679563;83;21094;-63
2021/12/02 00:54:06;;;;;;;5.17;3.20;;;;;;;6.67;68.76;99426.41;1679636;83;21675;-59
2021/12/02 00:56:34;;;;;;;5.83;3.80;;;;;;;6.91;65.95;99430.50;1711576;82;20910;-61
2021/12/02 00:59:03;;;;;;;4.47;2.60;;;;;;;6.89;63.35;99426.78;1676796;83;20986;-61
2021/12/02 01:01:36;;;;;;;5.28;3.00;;;;;;;6.80;62.70;99433.05;1678242;84;21510;-61
2021/12/02 01:04:13;;;;;;;4.70;2.80;;;;;;;7.12;60.30;99434.44;1709135;83;20914;-60
2021/12/02 01:06:40;;;;;;;4.60;2.60;;;;;;;7.20;58.76;99441.34;1668456;85;21868;-67
2021/12/02 01:09:10;;;;;;;4.80;2.50;;;;;;;6.80;59.16;99445.50;1669181;84;21038;-68
2021/12/02 01:11:38;;;;;;;4.45;2.60;;;;;;;6.72;59.05;99446.89;1668945;84;21014;-59
2021/12/02 01:14:05;;;;;;;4.12;2.42;;;;;;;6.72;58.22;99452.06;1669726;84;21075;-61
2021/12/02 01:16:34;;;;;;;4.58;2.58;;;;;;;6.61;58.33;99459.47;1668828;84;20865;-66
2021/12/02 01:19:03;;;;;;;4.17;2.35;;;;;;;5.97;61.28;99482.62;1669043;84;21502;-70
2021/12/02 01:21:30;;;;;;;4.75;2.30;;;;;;;5.93;62.29;99472.80;1669982;84;21466;-60
2021/12/02 01:24:02;;;;;;;4.83;2.15;;;;;;;6.12;61.29;99478.00;1669993;84;21454;-59
2021/12/02 01:26:31;;;;;;;4.05;2.52;;;;;;;6.39;60.03;99486.51;1653406;85;21478;-63
2021/12/02 01:29:00;;;;;;;4.65;2.17;;;;;;;6.39;59.27;99494.77;1670337;84;21466;-61
2021/12/02 01:31:34;;;;;;;4.20;2.67;;;;;;;6.39;59.69;99497.36;1669010;85;21148;-61
2021/12/02 01:34:07;;;;;;;4.62;2.20;;;;;;;6.37;59.92;99498.04;1669033;85;20949;-62
2021/12/02 01:36:37;;;;;;;4.87;2.40;;;;;;;6.80;58.29;99512.05;1669049;84;21479;-63
2021/12/02 01:39:04;;;;;;;7.40;2.75;;;;;;;7.00;56.67;99504.06;1668918;85;21000;-60
2021/12/02 01:41:54;;;;;;;4.80;2.22;;;;;;;6.90;55.42;99507.42;1669697;84;21525;-61
2021/12/02 01:44:22;;;;;;;5.00;2.95;;;;;;;6.77;55.45;99509.31;1668535;85;22246;-66
2021/12/02 01:46:51;;;;;;;6.17;2.87;;;;;;;6.71;55.31;99515.70;1668979;85;20992;-60
2021/12/02 01:49:19;;;;;;;4.40;2.35;;;;;;;7.09;54.50;99518.25;1669426;84;21504;-63
2021/12/02 01:51:50;;;;;;;4.53;2.60;;;;;;;5.85;55.95;99526.64;1669031;85;21470;-68
2021/12/02 01:54:20;;;;;;;7.67;2.95;;;;;;;5.58;58.18;99540.34;1668748;85;20996;-63
2021/12/02 01:56:58;;;;;;;4.95;2.37;;;;;;;5.66;57.76;99549.05;1669500;84;21151;-63
2021/12/02 01:59:28;;;;;;;5.05;2.75;;;;;;;5.61;57.42;99547.77;1669499;84;21044;-60
2021/12/02 02:01:58;;;;;;;7.85;2.83;;;;;;;5.48;57.66;99537.15;1653163;85;21037;-64
2021/12/02 02:04:25;;;;;;;4.62;2.62;;;;;;;5.78;56.72;99542.03;1674085;85;21178;-60
2021/12/02 02:07:02;;;;;;;6.03;2.47;;;;;;;5.04;58.56;99551.83;1679053;84;21466;-61
2021/12/02 02:09:32;;;;;;;5.05;2.62;;;;;;;5.01;59.76;99553.44;1678887;84;21812;-60
2021/12/02 02:12:06;;;;;;;5.20;2.80;;;;;;;4.99;59.79;99564.89;1678601;85;22449;-58
2021/12/02 02:14:33;;;;;;;8.40;3.17;;;;;;;4.58;61.60;99559.30;1710966;83;20977;-61
2021/12/02 02:17:07;;;;;;;4.72;2.40;;;;;;;4.58;62.82;99563.62;1711908;82;21005;-60
2021/12/02 02:19:31;;;;;;;5.55;2.47;;;;;;;4.70;62.01;99558.94;1711639;82;21033;-68
2021/12/02 02:21:59;;;;;;;4.95;2.20;;;;;;;4.61;61.59;99565.40;1678987;85;21311;-60
2021/12/02 02:24:27;;;;;;;4.15;2.12;;;;;;;4.79;61.60;99565.73;1679818;83;21055;-60
2021/12/02 02:26:56;;;;;;;5.90;2.95;;;;;;;4.79;61.17;99567.83;1680218;83;21034;-59
2021/12/02 02:29:23;;;;;;;5.80;2.30;;;;;;;4.98;60.37;99575.72;1678484;85;21154;-69
2021/12/02 02:31:50;;;;;;;5.00;2.50;;;;;;;4.79;60.97;99572.19;1708629;83;21027;-61
2021/12/02 02:34:19;;;;;;;5.30;2.72;;;;;;;5.01;61.14;99584.44;1671040;83;21162;-60
2021/12/02 02:36:55;;;;;;;5.33;2.42;;;;;;;5.13;60.48;99590.87;1688115;83;20974;-60
2021/12/02 02:39:21;;;;;;;4.45;2.20;;;;;;;4.87;61.30;99594.92;1640735;86;21063;-69
2021/12/02 02:42:02;;;;;;;4.37;2.40;;;;;;;4.71;62.65;99586.39;1710447;83;21087;-61
2021/12/02 02:44:25;;;;;;;4.50;1.85;;;;;;;4.57;63.39;99580.89;1711652;82;21095;-61
2021/12/02 02:46:52;;;;;;;5.90;2.52;;;;;;;4.29;64.24;99573.13;1679320;83;21159;-69
2021/12/02 02:49:20;;;;;;;6.17;2.42;;;;;;;4.63;62.84;99582.03;1679042;83;21121;-69
2021/12/02 02:51:49;;;;;;;4.75;2.42;;;;;;;4.68;61.56;99580.25;1679345;83;21501;-64
2021/12/02 02:54:17;;;;;;;5.58;2.65;;;;;;;4.32;62.18;99580.56;1679231;84;21516;-61
2021/12/02 02:56:55;;;;;;;4.15;1.92;;;;;;;4.14;63.56;99586.64;1708456;83;20894;-67
2021/12/02 02:59:35;;;;;;;5.05;2.55;;;;;;;3.88;63.65;99597.52;1668512;85;21828;-60
2021/12/02 03:02:10;;;;;;;8.38;2.90;;;;;;;3.98;64.47;99598.67;1710413;82;20993;-60
2021/12/02 03:12:54;;;;;;;5.47;2.33;;;;;;;3.70;64.63;99616.94;1715627;82;21131;-71
2021/12/02 03:17:09;;;;;;;5.50;2.35;;;;;;;3.79;62.73;99613.45;1686269;85;21034;-59
2021/12/02 03:19:44;;;;;;;4.97;2.37;;;;;;;3.84;63.06;99623.30;1716013;83;21017;-60
2021/12/02 03:22:12;;;;;;;4.40;2.40;;;;;;;3.94;62.28;99625.27;1715981;82;21471;-60
2021/12/02 03:24:39;;;;;;;7.47;2.47;;;;;;;3.63;62.25;99630.11;1685983;83;21136;-60
2021/12/02 03:27:08;;;;;;;4.85;2.67;;;;;;;4.01;61.87;99626.73;1686630;83;21164;-63
2021/12/02 03:29:36;;;;;;;6.33;2.25;;;;;;;3.80;62.00;99619.41;1686049;85;21081;-63
2021/12/02 03:32:04;;;;;;;5.97;2.58;;;;;;;3.93;61.68;99621.06;1685832;85;20951;-62
2021/12/02 03:34:32;;;;;;;4.58;2.20;;;;;;;3.98;61.33;99629.16;1715787;82;21496;-62
2021/12/02 03:36:59;;;;;;;5.75;3.02;;;;;;;3.99;61.15;99642.37;1686613;83;22124;-61
2021/12/02 03:39:26;;;;;;;5.55;2.50;;;;;;;3.90;61.00;99643.28;1687055;83;20992;-61
2021/12/02 03:41:55;;;;;;;7.17;2.47;;;;;;;3.95;61.16;99638.48;1685805;85;21908;-69
2021/12/02 03:44:23;;;;;;;4.70;2.35;;;;;;;4.00;60.78;99639.30;1685935;83;21354;-62
2021/12/02 03:46:50;;;;;;;5.08;2.42;;;;;;;4.21;59.72;99647.45;1686827;83;22575;-60
2021/12/02 03:49:18;;;;;;;5.60;2.22;;;;;;;4.00;60.21;99643.98;1686223;85;21330;-61
2021/12/02 03:51:45;;;;;;;5.40;2.30;;;;;;;4.07;59.47;99648.84;1686615;84;21536;-67
2021/12/02 03:54:12;;;;;;;5.12;2.42;;;;;;;4.04;59.81;99658.17;1715280;82;20962;-68
2021/12/02 03:56:39;;;;;;;5.15;2.45;;;;;;;4.06;59.10;99661.42;1686343;83;20963;-61
2021/12/02 03:59:07;;;;;;;6.80;2.58;;;;;;;4.07;58.73;99660.45;1686038;85;21019;-61
2021/12/02 04:01:35;;;;;;;4.33;2.58;;;;;;;3.57;59.60;99662.47;1687863;83;21191;-60
2021/12/02 04:04:02;;;;;;;4.75;2.67;;;;;;;3.28;62.44;99665.33;1691293;84;21474;-66
2021/12/02 04:06:29;;;;;;;4.53;2.20;;;;;;;3.14;63.05;99669.27;1690981;84;22262;-60
2021/12/02 04:09:05;;;;;;;5.15;2.50;;;;;;;3.25;63.09;99669.48;1661380;85;21568;-59
2021/12/02 04:12:34;;;;;;;4.92;2.72;;;;;;;3.23;64.23;99675.77;1690616;84;20916;-60
2021/12/02 04:14:25;;;;;;;5.92;3.20;;;;;;;3.35;63.08;99668.13;1674696;84;21741;-60
2021/12/02 04:16:53;;;;;;;4.75;2.05;;;;;;;3.49;61.75;99679.17;1661867;86;20912;-61
2021/12/02 04:19:22;;;;;;;4.45;2.20;;;;;;;3.70;61.12;99684.44;1663436;85;20995;-60
2021/12/02 04:21:51;;;;;;;7.28;2.87;;;;;;;2.54;64.74;99683.22;1662127;85;21074;-67
2021/12/02 04:24:19;;;;;;;5.28;2.80;;;;;;;2.57;69.84;99682.90;1692022;83;21530;-60
2021/12/02 04:26:46;;;;;;;7.58;3.12;;;;;;;2.48;70.37;99684.27;1690638;83;21155;-60
2021/12/02 04:29:13;;;;;;;7.97;3.92;;;;;;;2.66;69.24;99671.75;1657387;84;21022;-63
2021/12/02 04:31:44;;;;;;;9.65;4.67;;;;;;;2.74;68.17;99676.16;1663294;85;20947;-62
2021/12/02 04:34:12;;;;;;;8.25;3.85;;;;;;;2.66;66.91;99691.53;1665440;85;22123;-61
2021/12/02 04:36:40;;;;;;;6.97;3.98;;;;;;;2.99;66.25;99697.77;1665261;84;21464;-61
2021/12/02 04:39:07;;;;;;;7.70;4.15;;;;;;;3.08;64.94;99703.34;1660222;84;22255;-60
2021/12/02 04:41:35;;;;;;;10.23;4.87;;;;;;;3.11;64.14;99712.06;1690648;84;20940;-62
2021/12/02 04:44:02;;;;;;;8.68;4.30;;;;;;;2.99;64.12;99715.79;1688980;84;21071;-61
2021/12/02 04:46:29;;;;;;;7.30;3.70;;;;;;;3.15;63.64;99717.23;1686718;83;21382;-61
2021/12/02 04:48:56;;;;;;;7.42;4.30;;;;;;;3.03;64.05;99728.73;1687101;83;20915;-60
2021/12/02 04:51:24;;;;;;;9.28;5.05;;;;;;;3.08;64.12;99723.94;1691373;84;21169;-61
2021/12/02 04:53:52;;;;;;;9.58;4.75;;;;;;;3.03;64.12;99722.74;1690625;83;21003;-66
2021/12/02 04:56:19;;;;;;;11.33;6.00;;;;;;;2.91;64.20;99731.17;1689599;84;22367;-59
2021/12/02 04:58:46;;;;;;;11.28;5.92;;;;;;;2.89;65.06;99725.38;1691572;83;21086;-59
2021/12/02 05:01:14;;;;;;;13.38;6.65;;;;;;;2.88;64.16;99739.20;1670974;83;20953;-58
2021/12/02 05:03:41;;;;;;;11.40;5.40;;;;;;;2.48;67.75;99747.29;1654262;86;21175;-61
2021/12/02 05:06:09;;;;;;;9.33;4.87;;;;;;;2.67;67.98;99747.18;1654347;86;21096;-60
2021/12/02 05:08:36;;;;;;;8.20;4.15;;;;;;;2.41;69.26;99751.70;1654877;85;21502;-59
2021/12/02 05:11:03;;;;;;;6.80;4.17;;;;;;;2.58;69.52;99751.44;1653285;85;21057;-61
2021/12/02 05:13:31;;;;;;;7.42;4.35;;;;;;;2.61;70.67;99751.16;1654330;85;21540;-65
2021/12/02 05:15:58;;;;;;;6.95;3.80;;;;;;;2.74;73.11;99758.52;1629397;87;22325;-59
2021/12/02 05:18:25;;;;;;;7.03;3.60;;;;;;;3.29;73.18;99755.00;1653420;84;20983;-67
2021/12/02 05:20:52;;;;;;;6.75;3.42;;;;;;;3.61;73.30;99753.17;1687201;84;21483;-60
2021/12/02 05:23:19;;;;;;;7.80;3.87;;;;;;;4.15;73.30;99751.23;1689023;84;21000;-60
2021/12/02 05:25:46;;;;;;;6.72;3.47;;;;;;;4.68;69.98;99761.77;1688015;84;21537;-60
2021/12/02 05:28:18;;;;;;;7.67;3.58;;;;;;;5.19;68.26;99766.86;1678046;84;21258;-60
2021/12/02 05:30:46;;;;;;;;;;;;;;;6.18;65.23;99763.27;1689994;84;20975;-61
2021/12/02 05:33:14;;;;;;;7.15;3.80;;;;;;;6.71;63.23;99766.94;1678826;84;20135;-61
2021/12/02 05:35:41;;;;;;;7.58;4.12;;;;;;;7.67;59.66;99765.61;1688970;83;21513;-60
2021/12/02 05:38:08;;;;;;;8.78;4.30;;;;;;;8.19;57.65;99756.48;1689413;84;20988;-61
2021/12/02 05:40:36;;;;;;;22.00;14.25;;;;;;;9.09;54.91;99768.82;1688903;84;21153;-63
2021/12/02 05:43:03;;;;;;;13.13;9.63;;;;;;;9.86;52.11;99773.28;1689311;84;20979;-61
2021/12/02 05:45:30;;;;;;;21.23;10.28;;;;;;;10.12;49.96;99777.86;1688646;84;21063;-61
2021/12/02 05:47:57;;;;;;;12.23;8.30;;;;;;;10.34;48.98;99779.42;1688557;84;21030;-62
2021/12/02 05:50:25;;;;;;;9.80;6.37;;;;;;;10.29;49.13;99783.08;1688481;84;20896;-65
2021/12/02 05:52:52;;;;;;;9.00;6.40;;;;;;;10.82;47.39;99791.12;1688575;84;21222;-62
2021/12/02 05:55:19;;;;;;;12.40;6.80;;;;;;;11.29;46.20;99794.66;1688869;84;21002;-60
2021/12/02 05:57:47;;;;;;;9.78;6.47;;;;;;;11.76;44.59;99792.06;1688320;84;20928;-60
2021/12/02 06:00:15;;;;;;;9.83;6.30;;;;;;;12.05;43.95;99789.55;1677913;84;21509;-66
2021/12/02 06:02:42;;;;;;;9.57;5.43;;;;;;;13.00;42.14;99792.42;1690495;84;21124;-59
2021/12/02 06:05:16;;;;;;;8.60;5.53;;;;;;;12.98;41.73;99795.74;1691099;84;21350;-70
2021/12/02 06:07:40;;;;;;;9.53;5.33;;;;;;;13.72;40.53;99787.20;1690734;83;23362;-60
2021/12/02 06:10:09;;;;;;;8.93;6.63;;;;;;;14.28;39.61;99794.61;1691128;83;21305;-70
2021/12/02 06:12:38;;;;;;;13.77;11.83;;;;;;;13.90;39.83;99797.41;1691469;84;21582;-62
2021/12/02 06:15:07;;;;;;;11.10;8.23;;;;;;;14.71;38.83;99805.05;1679933;84;21397;-64
2021/12/02 06:17:36;;;;;;;8.37;5.80;;;;;;;14.71;38.83;99805.05;1680807;84;21376;-62
2021/12/02 06:20:05;;;;;;;8.70;5.20;;;;;;;15.22;37.54;99801.63;1690802;84;21553;-69
2021/12/02 06:22:33;;;;;;;10.03;6.13;;;;;;;15.58;36.04;99801.48;1691376;84;21780;-62
2021/12/02 06:27:33;;;;;;;5.43;3.00;;;;;;;15.46;36.01;99814.33;1691290;84;22381;-62
2021/12/02 06:30:00;;;;;;;6.37;3.30;;;;;;;15.74;34.45;99826.32;1690908;84;22223;-68
2021/12/02 06:32:29;;;;;;;6.80;4.10;;;;;;;15.76;33.97;99833.48;1691346;83;21695;-61
2021/12/02 06:34:56;;;;;;;8.63;4.90;;;;;;;15.40;34.31;99821.78;1691333;84;21008;-66
2021/12/02 06:37:24;;;;;;;8.07;4.90;;;;;;;15.24;34.60;99825.86;1687507;84;20991;-62
2021/12/02 06:39:51;;;;;;;7.90;5.40;;;;;;;15.38;34.39;99831.70;1690905;84;21660;-63
2021/12/02 06:42:19;;;;;;;8.97;5.80;;;;;;;15.38;34.39;99831.70;1690911;83;21138;-63
2021/12/02 06:44:47;;;;;;;9.67;6.10;;;;;;;15.57;34.65;99835.36;1691480;84;21477;-63
2021/12/02 06:47:14;;;;;;;7.23;5.20;;;;;;;16.01;34.79;99839.02;1680074;84;21071;-60
2021/12/02 06:49:41;;;;;;;10.47;6.20;;;;;;;15.75;34.47;99842.88;1691153;84;21034;-62
2021/12/02 06:52:12;;;;;;;9.73;5.00;;;;;;;16.34;34.26;99831.86;1690776;84;21134;-62
2021/12/02 06:54:39;;;;;;;9.67;5.60;;;;;;;16.22;34.65;99831.08;1689456;84;21206;-61
2021/12/02 06:57:26;;;;;;;8.40;5.40;;;;;;;16.15;34.38;99828.56;1690959;84;20971;-66
2021/12/02 06:59:54;;;;;;;9.57;5.73;;;;;;;15.74;35.19;99842.60;1681952;84;21118;-62
2021/12/02 07:02:21;;;;;;;8.93;5.40;;;;;;;15.91;35.18;99851.92;1681266;85;21068;-60
2021/12/02 07:04:50;;;;;;;6.40;4.33;;;;;;;16.03;34.84;99854.06;1680984;84;21042;-68
2021/12/02 07:07:17;;;;;;;6.53;4.30;;;;;;;16.20;34.70;99845.75;1681082;85;21190;-59
2021/12/02 07:09:44;;;;;;;8.00;3.90;;;;;;;16.51;33.38;99839.82;1680985;84;20999;-65
2021/12/02 07:12:12;;;;;;;6.23;3.10;;;;;;;15.95;34.16;99850.47;1681064;85;21011;-59
2021/12/02 07:14:45;;;;;;;6.63;3.77;;;;;;;15.97;34.49;99847.87;1681374;85;21031;-59
2021/12/02 07:17:09;;;;;;;5.27;3.43;;;;;;;16.16;34.56;99844.61;1680151;85;20983;-62
2021/12/02 07:19:39;;;;;;;6.57;3.90;;;;;;;16.09;34.57;99856.28;1681133;85;22011;-61
2021/12/02 07:22:06;;;;;;;7.47;4.43;;;;;;;16.56;34.08;99854.42;1680405;85;21000;-61
2021/12/02 07:24:33;;;;;;;10.70;6.67;;;;;;;16.89;34.07;99857.72;1681251;85;21019;-60
2021/12/02 07:27:00;;;;;;;6.50;5.07;;;;;;;16.92;33.49;99863.84;1680491;84;21448;-68
2021/12/02 07:29:28;;;;;;;6.30;4.60;;;;;;;16.97;33.61;99876.29;1680428;84;21122;-60
2021/12/02 07:31:55;;;;;;;6.30;3.37;;;;;;;17.09;32.67;99882.86;1680786;84;21150;-70
2021/12/02 07:34:23;;;;;;;6.00;3.67;;;;;;;16.50;32.86;99889.53;1680765;85;20988;-60
2021/12/02 07:36:51;;;;;;;5.60;3.20;;;;;;;16.16;32.90;99887.20;1681220;85;21016;-64
2021/12/02 07:39:18;;;;;;;6.00;4.20;;;;;;;16.01;32.44;99881.08;1680561;85;20972;-60
2021/12/02 07:41:45;;;;;;;4.93;3.53;;;;;;;15.87;32.85;99887.57;1680998;85;21070;-72
2021/12/02 07:44:12;;;;;;;5.20;3.47;;;;;;;15.93;32.67;99890.10;1680602;85;21141;-59
2021/12/02 07:46:39;;;;;;;5.67;3.00;;;;;;;15.28;32.95;99894.77;1681069;85;21528;-60
2021/12/02 07:49:06;;;;;;;5.03;2.47;;;;;;;15.07;33.09;99893.92;1680066;85;21054;-60
2021/12/02 07:51:35;;;;;;;4.10;2.43;;;;;;;14.76;32.72;99885.20;1680911;85;21833;-59
2021/12/02 07:54:02;;;;;;;5.43;2.60;;;;;;;14.20;32.93;99901.86;1680446;85;21706;-67
2021/12/02 07:56:29;;;;;;;4.90;2.70;;;;;;;13.68;33.79;99904.41;1680980;85;22174;-60
2021/12/02 07:58:59;;;;;;;5.40;3.07;;;;;;;13.51;33.74;99908.02;1680298;85;37529;-67
2021/12/02 08:01:27;;;;;;;5.00;2.80;;;;;;;13.13;34.14;99908.78;1680888;85;21357;-60
2021/12/02 08:03:54;;;;;;;4.97;2.97;;;;;;;12.34;35.23;99924.17;1686814;83;21808;-64
2021/12/02 08:06:24;;;;;;;5.67;3.17;;;;;;;12.16;35.56;99914.34;1674120;84;21176;-60
2021/12/02 08:08:52;;;;;;;7.67;4.73;;;;;;;11.89;35.81;99916.13;1692868;83;21158;-66
2021/12/02 08:11:19;;;;;;;7.97;4.43;;;;;;;11.43;36.97;99928.05;1677931;83;21182;-61
2021/12/02 08:13:51;;;;;;;6.97;4.05;;;;;;;11.66;37.03;99932.13;1676055;84;21056;-64
2021/12/02 08:16:15;;;;;;;5.47;2.75;;;;;;;11.83;37.12;99929.49;1683040;84;21074;-61
2021/12/02 08:18:42;;;;;;;5.12;2.12;;;;;;;12.26;35.76;99935.63;1680960;85;21006;-64
2021/12/02 08:21:09;;;;;;;4.40;2.47;;;;;;;12.17;35.57;99940.27;1680476;85;21149;-60
2021/12/02 08:23:37;;;;;;;4.20;1.92;;;;;;;11.99;35.41;99934.83;1680888;84;21079;-61
2021/12/02 08:26:04;;;;;;;4.28;2.20;;;;;;;11.48;35.50;99941.02;1680576;85;21861;-75
2021/12/02 08:28:31;;;;;;;4.28;2.15;;;;;;;11.78;34.81;99934.48;1680710;85;22818;-61
2021/12/02 08:30:59;;;;;;;6.03;2.40;;;;;;;11.74;35.08;99941.08;1681668;83;20972;-64
2021/12/02 08:33:27;;;;;;;4.65;2.10;;;;;;;11.71;35.10;99931.05;1680997;85;21145;-59
2021/12/02 08:35:54;;;;;;;4.67;2.30;;;;;;;11.65;35.52;99940.97;1680451;85;21098;-63
2021/12/02 08:38:29;;;;;;;5.05;2.92;;;;;;;11.57;35.80;99939.34;1685513;83;20972;-60
2021/12/02 08:40:50;;;;;;;24.07;11.65;;;;;;;11.87;34.91;99931.20;1681747;83;21603;-68
2021/12/02 08:43:18;;;;;;;13.35;6.25;;;;;;;11.99;34.68;99922.27;1680517;85;21075;-61
2021/12/02 08:45:46;;;;;;;5.15;2.60;;;;;;;12.06;33.92;99930.41;1680217;84;21207;-61
2021/12/02 08:48:15;;;;;;;17.17;10.75;;;;;;;11.43;33.49;99935.89;1682606;85;21623;-72
2021/12/02 08:50:44;;;;;;;40.08;18.37;;;;;;;11.22;34.21;99930.81;1680571;85;21098;-60
2021/12/02 08:53:11;;;;;;;33.88;17.35;;;;;;;11.33;34.40;99926.84;1692692;83;21037;-59
2021/12/02 08:55:40;;;;;;;30.32;15.03;;;;;;;11.36;35.04;99923.81;1682351;83;21165;-64
2021/12/02 08:58:09;;;;;;;75.90;36.50;;;;;;;11.72;34.41;99911.77;1679782;84;21182;-64
2021/12/02 09:00:40;;;;;;;115.47;56.60;;;;;;;11.53;34.50;99920.37;1660288;85;21182;-61
2021/12/02 09:03:13;;;;;;;98.15;52.33;;;;;;;11.53;35.19;99923.78;1662059;84;21008;-60
2021/12/02 09:05:40;;;;;;;108.63;55.25;;;;;;;11.65;35.18;99918.78;1661374;84;21156;-59
2021/12/02 09:08:08;;;;;;;34.27;21.33;;;;;;;11.59;35.59;99918.25;1648216;85;21027;-63
2021/12/02 09:10:36;;;;;;;15.25;8.03;;;;;;;11.06;35.90;99915.00;1649271;85;21617;-63
2021/12/02 09:13:07;;;;;;;13.58;7.83;;;;;;;11.17;35.94;99913.61;1662110;85;21115;-61
2021/12/02 09:15:32;;;;;;;11.33;6.22;;;;;;;11.13;35.95;99907.98;1660541;85;21044;-62
2021/12/02 09:18:00;;;;;;;10.20;5.00;;;;;;;11.12;36.24;99912.09;1663555;85;21092;-63
2021/12/02 09:20:27;;;;;;;8.40;4.55;;;;;;;11.34;35.53;99916.70;1663384;85;21095;-62
2021/12/02 09:22:54;;;;;;;8.60;4.50;;;;;;;11.08;35.87;99914.80;1661251;85;21176;-65
2021/12/02 09:25:23;;;;;;;8.08;4.33;;;;;;;10.58;36.85;99915.45;1660725;85;22105;-61
2021/12/02 09:27:50;;;;;;;7.28;4.03;;;;;;;10.50;36.80;99912.98;1659941;85;21008;-61
2021/12/02 09:30:18;;;;;;;7.53;4.20;;;;;;;10.82;36.63;99924.09;1667157;84;21636;-66
2021/12/02 09:32:46;;;;;;;6.60;3.30;;;;;;;10.78;36.62;99918.96;1659935;85;21062;-69
2021/12/02 09:35:14;;;;;;;6.05;2.90;;;;;;;10.72;36.46;99930.17;1645791;86;22426;-62
2021/12/02 09:37:41;;;;;;;6.05;3.37;;;;;;;11.06;36.83;99929.82;1674732;85;22078;-62
2021/12/02 09:40:11;;;;;;;7.53;3.90;;;;;;;11.58;36.52;99927.09;1675571;85;21562;-62
2021/12/02 09:42:38;;;;;;;6.62;3.30;;;;;;;12.03;36.49;99916.44;1671063;85;21676;-62
2021/12/02 09:45:06;;;;;;;6.72;3.47;;;;;;;12.47;36.06;99912.91;1650727;85;21107;-61
2021/12/02 09:47:38;;;;;;;5.78;3.35;;;;;;;12.98;34.77;99903.80;1669372;85;21148;-62
2021/12/02 09:50:18;;;;;;;6.55;3.45;;;;;;;12.98;34.68;99897.27;1671756;84;21091;-71
2021/12/02 09:52:45;;;;;;;5.85;3.27;;;;;;;13.23;34.28;99891.34;1678526;84;21088;-61
2021/12/02 09:55:32;;;;;;;4.78;2.92;;;;;;;13.55;33.59;99875.16;1670616;85;21510;-61
2021/12/02 09:57:56;;;;;;;5.60;3.22;;;;;;;13.60;33.93;99879.28;1672350;84;21025;-61
2021/12/02 10:00:28;;;;;;;6.20;3.80;;;;;;;13.37;33.55;99872.77;1675529;84;21280;-70
2021/12/02 10:03:04;;;;;;;6.87;3.60;;;;;;;13.86;33.36;99875.16;1645581;87;21141;-60
2021/12/02 10:06:19;;;;;;;7.40;4.03;;;;;;;14.33;32.64;99868.98;1686751;84;20994;-62
2021/12/02 10:08:11;;;;;;;7.12;4.03;;;;;;;14.22;32.40;99861.03;1678597;83;21594;-60
2021/12/02 10:10:41;;;;;;;6.42;3.67;;;;;;;14.07;32.54;99863.47;1641717;85;21110;-64
2021/12/02 10:13:29;;;;;;;7.08;4.45;;;;;;;13.91;32.98;99867.16;1603601;85;21192;-61
2021/12/02 10:16:07;;;;;;;7.22;4.30;;;;;;;13.81;33.28;99866.31;1685252;84;21033;-62
2021/12/02 10:18:54;;;;;;;8.63;4.47;;;;;;;13.68;33.97;99866.43;1643088;87;20994;-63
2021/12/02 10:21:24;;;;;;;5.83;3.98;;;;;;;13.88;33.91;99870.48;1645785;85;21585;-62
2021/12/02 10:23:48;;;;;;;8.75;5.87;;;;;;;14.06;33.70;99855.33;1688966;84;21481;-61
2021/12/02 10:26:18;;;;;;;20.05;12.98;;;;;;;14.15;33.92;99857.16;1647864;85;21144;-63
2021/12/02 10:28:44;;;;;;;12.95;8.78;;;;;;;14.66;33.35;99856.08;1686630;84;21362;-63
2021/12/02 10:31:19;;;;;;;8.95;5.58;;;;;;;15.22;33.03;99861.51;1645639;87;21519;-60
2021/12/02 10:33:53;;;;;;;7.25;4.92;;;;;;;15.20;32.61;99856.21;1666532;84;20980;-63
2021/12/02 10:36:39;;;;;;;7.65;5.37;;;;;;;15.43;32.18;99848.40;1679634;83;20908;-60
2021/12/02 10:39:23;;;;;;;9.05;5.87;;;;;;;15.46;32.08;99837.45;1645983;85;21612;-62
2021/12/02 10:42:07;;;;;;;9.30;6.60;;;;;;;15.28;32.60;99826.48;1689435;84;20904;-62
2021/12/02 10:44:35;;;;;;;17.55;12.25;;;;;;;15.39;32.44;99820.98;1657700;85;21552;-61
2021/12/02 10:47:13;;;;;;;62.62;37.65;;;;;;;13.07;35.54;99818.05;1687779;84;21033;-63
2021/12/02 10:49:44;;;;;;;17.98;11.30;;;;;;;14.44;34.20;99804.53;1694234;83;21422;-61
2021/12/02 10:52:17;;;;;;;12.65;8.53;;;;;;;14.60;34.38;99792.16;1644393;87;21139;-70
2021/12/02 10:54:48;;;;;;;9.47;6.77;;;;;;;15.06;33.88;99793.89;1685425;84;21116;-61
2021/12/02 10:57:21;;;;;;;10.67;7.50;;;;;;;15.36;33.23;99789.12;1685802;84;22603;-59
2021/12/02 10:59:58;;;;;;;9.80;7.00;;;;;;;15.14;33.46;99787.52;1638691;86;21139;-69
2021/12/02 11:02:35;;;;;;;11.37;7.70;;;;;;;15.05;33.36;99788.36;1636192;86;21154;-61
2021/12/02 11:05:35;;;;;;;12.10;8.97;;;;;;;14.60;34.21;99784.80;1636435;87;21367;-60
2021/12/02 11:07:44;;;;;;;11.65;7.92;;;;;;;14.80;34.58;99780.61;1627910;87;21854;-62
2021/12/02 11:10:14;;;;;;;11.38;8.08;;;;;;;14.64;35.08;99774.67;1645379;87;21625;-60
2021/12/02 11:12:42;;;;;;;13.72;8.73;;;;;;;14.99;34.39;99765.62;1639686;87;21041;-63
2021/12/02 11:15:19;;;;;;;13.08;8.63;;;;;;;14.76;34.88;99767.13;1645106;87;21054;-68
2021/12/02 11:17:57;;;;;;;12.87;8.40;;;;;;;14.28;35.28;99763.98;1645399;87;21405;-61
2021/12/02 11:20:33;;;;;;;11.78;7.65;;;;;;;14.54;35.35;99762.07;1650655;86;21824;-60
2021/12/02 11:23:15;;;;;;;33.47;15.30;;;;;;;14.75;35.31;99760.81;1661040;84;21583;-71
2021/12/02 11:26:01;;;;;;;20.83;11.43;;;;;;;14.80;35.17;99763.03;1689369;83;21336;-62
2021/12/02 11:28:30;;;;;;;16.17;10.83;;;;;;;14.94;35.37;99764.98;1682550;84;21835;-68
2021/12/02 11:30:59;;;;;;;25.93;14.57;;;;;;;14.81;35.42;99765.97;1688717;84;22111;-60
2021/12/02 11:33:31;;;;;;;20.75;12.35;;;;;;;14.81;35.60;99771.22;1688977;84;21748;-60
2021/12/02 11:35:58;;;;;;;;;;;;;;;14.86;35.55;99763.19;1684200;84;20953;-59
2021/12/02 11:38:27;;;;;;;14.80;9.57;;;;;;;14.93;35.78;99753.41;1687715;84;20234;-65
2021/12/02 11:40:57;;;;;;;16.27;10.07;;;;;;;15.08;35.31;99758.52;1688250;84;22579;-59
2021/12/02 11:43:29;;;;;;;15.20;10.17;;;;;;;14.82;35.56;99754.96;1689743;84;21246;-58
2021/12/02 11:45:57;;;;;;;15.40;10.70;;;;;;;14.53;35.94;99773.59;1688942;84;21490;-71
2021/12/02 11:48:31;;;;;;;17.55;11.57;;;;;;;14.41;36.24;99762.22;1686217;84;21597;-69
2021/12/02 11:51:00;;;;;;;15.83;11.15;;;;;;;14.27;36.63;99771.53;1629267;86;21098;-59
2021/12/02 11:53:28;;;;;;;20.52;11.60;;;;;;;14.44;37.03;99769.13;1638659;86;22384;-62
2021/12/02 11:56:01;;;;;;;16.75;11.35;;;;;;;14.59;37.24;99759.60;1634416;86;21011;-66
2021/12/02 11:58:30;;;;;;;17.15;12.23;;;;;;;15.40;36.32;99758.75;1639661;86;21105;-62
2021/12/02 12:00:57;;;;;;;15.95;11.33;;;;;;;15.49;35.97;99756.89;1675205;84;20898;-60
2021/12/02 12:03:43;;;;;;;14.30;10.00;;;;;;;15.71;35.54;99751.08;1685787;84;21551;-60